Time;durP1;ratioP1;P1;durP2;ratioP2;P2;SDS_P1;SDS_P2;PMS_P1;PMS_P2;Temp;Humidity;BMP_temperature;BMP_pressure;BME280_temperature;BME280_humidity;BME280_pressure;Samples;Min_cycle;Max_cycle;Signal;HPM_P1;HPM_P2
2021/08/12 00:00:32;;;;;;;7.00;4.37;;;;;;;22.04;76.04;100304.56;6246471;28;20550;-76
2021/08/12 00:03:33;;;;;;;6.50;4.80;;;;;;;22.00;76.18;100305.88;6228347;28;20285;-76
2021/08/12 00:06:34;;;;;;;9.18;4.32;;;;;;;22.00;75.09;100305.88;6245926;28;20104;-76
2021/08/12 00:09:35;;;;;;;9.60;4.30;;;;;;;21.94;75.86;100317.97;6228501;28;20053;-76
2021/08/12 00:12:35;;;;;;;8.90;4.73;;;;;;;21.93;76.07;100326.13;6245101;28;20048;-76
2021/08/12 00:15:36;;;;;;;8.83;4.40;;;;;;;21.95;76.81;100324.16;6244588;28;20052;-76
2021/08/12 00:18:37;;;;;;;10.73;5.17;;;;;;;21.87;76.41;100324.94;6228129;28;20049;-76
2021/08/12 00:21:39;;;;;;;6.90;4.13;;;;;;;21.86;76.43;100320.59;6228230;28;20046;-76
2021/08/12 00:24:39;;;;;;;7.15;4.40;;;;;;;21.86;77.47;100327.75;6244259;28;20045;-76
2021/08/12 00:27:41;;;;;;;8.27;4.70;;;;;;;21.80;77.17;100325.72;6228274;28;20041;-75
2021/08/12 00:30:41;;;;;;;10.32;4.57;;;;;;;21.78;76.97;100320.56;6244474;28;20049;-76
2021/08/12 00:33:42;;;;;;;6.67;4.77;;;;;;;21.70;76.53;100321.41;6228280;28;20068;-76
2021/08/12 00:36:43;;;;;;;7.03;4.10;;;;;;;21.71;76.55;100332.84;6211641;28;20411;-75
2021/08/12 00:39:43;;;;;;;6.67;4.20;;;;;;;21.73;77.65;100322.88;6244190;28;20073;-76
2021/08/12 00:42:44;;;;;;;8.20;4.87;;;;;;;21.61;76.26;100338.25;6227899;28;20038;-76
2021/08/12 00:45:45;;;;;;;10.07;5.23;;;;;;;21.65;76.59;100338.78;6245289;28;20488;-76
2021/08/12 00:48:46;;;;;;;7.97;4.82;;;;;;;21.55;76.52;100328.28;6244155;28;20048;-75
2021/08/12 00:51:47;;;;;;;7.33;5.10;;;;;;;21.44;76.95;100340.00;6244129;28;20124;-76
2021/08/12 00:54:49;;;;;;;6.57;4.78;;;;;;;21.46;77.42;100339.84;6244107;28;20041;-76
2021/08/12 00:57:50;;;;;;;7.07;4.90;;;;;;;21.38;78.30;100340.59;6245197;28;20463;-75
2021/08/12 01:00:51;;;;;;;10.55;5.38;;;;;;;21.41;78.06;100340.28;6245564;28;20038;-76
2021/08/12 01:03:52;;;;;;;8.47;5.23;;;;;;;21.38;78.40;100343.25;6227561;28;20046;-76
2021/08/12 01:07:05;;;;;;;11.50;5.18;;;;;;;21.36;78.01;100345.22;6244957;28;20309;-76
2021/08/12 01:10:21;;;;;;;10.15;5.05;;;;;;;21.26;78.48;100349.81;6245300;28;20400;-76
2021/08/12 01:13:37;;;;;;;7.55;5.00;;;;;;;21.29;78.16;100352.13;6245871;28;20041;-76
2021/08/12 01:16:54;;;;;;;8.73;5.15;;;;;;;21.23;78.46;100340.34;6245084;28;20111;-76
2021/08/12 01:20:02;;;;;;;6.85;4.57;;;;;;;21.19;77.89;100349.59;6245955;28;20042;-76
2021/08/12 01:23:09;;;;;;;7.10;4.57;;;;;;;21.17;77.94;100348.94;6245224;28;20103;-76
2021/08/12 01:26:11;;;;;;;7.32;4.90;;;;;;;21.08;77.86;100355.97;6248462;28;20042;-76
2021/08/12 01:29:25;;;;;;;7.40;5.50;;;;;;;21.14;77.48;100352.69;6248268;28;20069;-76
2021/08/12 01:32:27;;;;;;;8.73;4.78;;;;;;;21.08;77.84;100347.19;6249525;28;20535;-76
2021/08/12 01:35:32;;;;;;;8.68;4.90;;;;;;;21.04;77.76;100351.13;6248060;28;20073;-75
2021/08/12 01:38:36;;;;;;;8.80;5.10;;;;;;;20.97;78.86;100355.41;6249219;28;20037;-76
2021/08/12 01:41:38;;;;;;;9.93;5.07;;;;;;;21.04;78.15;100351.97;6247874;28;20117;-76
2021/08/12 01:44:40;;;;;;;9.02;5.30;;;;;;;21.01;78.28;100354.94;6249076;28;20048;-75
2021/08/12 01:47:43;;;;;;;8.82;5.13;;;;;;;21.04;77.84;100359.09;6249293;28;20038;-76
2021/08/12 01:50:44;;;;;;;7.97;4.68;;;;;;;20.97;78.70;100358.06;6248802;28;20052;-76
2021/08/12 01:53:46;;;;;;;8.00;5.05;;;;;;;20.96;78.73;100356.38;6231314;28;20042;-76
2021/08/12 01:56:47;;;;;;;;;;;;;;;20.96;78.18;100357.22;6249206;28;20107;-75
2021/08/12 01:59:49;;;;;;;7.55;4.88;;;;;;;20.97;77.87;100369.50;6248708;28;20371;-76
2021/08/12 02:02:50;;;;;;;;;;;;;;;21.02;77.37;100363.72;6231552;28;20072;-75
2021/08/12 02:05:52;;;;;;;9.10;4.80;;;;;;;20.98;77.09;100368.53;6231009;28;20391;-76
2021/08/12 02:08:53;;;;;;;8.55;4.97;;;;;;;21.00;76.90;100368.34;6247008;28;20049;-76
2021/08/12 02:11:54;;;;;;;7.90;4.63;;;;;;;20.88;76.89;100357.16;6214686;28;20046;-75
2021/08/12 02:14:54;;;;;;;7.03;5.10;;;;;;;20.89;76.82;100358.81;6247084;28;20045;-75
2021/08/12 02:17:55;;;;;;;9.80;5.13;;;;;;;20.90;76.64;100358.66;6214444;28;20041;-75
2021/08/12 02:21:10;;;;;;;7.57;4.80;;;;;;;20.84;76.43;100361.09;6248307;28;20053;-76
2021/08/12 02:24:14;;;;;;;7.72;4.50;;;;;;;20.90;76.04;100357.84;6246984;28;20480;-75
2021/08/12 02:27:20;;;;;;;9.45;4.55;;;;;;;20.81;75.77;100358.75;6248087;28;20053;-76
2021/08/12 02:30:21;;;;;;;6.43;4.60;;;;;;;20.79;75.40;100350.94;6248472;28;20049;-76
2021/08/12 02:33:27;;;;;;;7.65;4.40;;;;;;;20.89;74.58;100353.50;6246861;28;20065;-76
2021/08/12 02:36:28;;;;;;;8.02;3.95;;;;;;;20.87;74.38;100360.78;6246115;28;20042;-75
2021/08/12 02:39:31;;;;;;;8.90;4.60;;;;;;;20.78;74.99;100367.03;6246613;28;20064;-75
2021/08/12 02:42:34;;;;;;;9.55;4.85;;;;;;;20.87;74.11;100371.41;6247729;28;20041;-75
2021/08/12 02:45:36;;;;;;;5.88;3.97;;;;;;;20.80;73.40;100376.47;6247653;28;20077;-75
2021/08/12 02:48:37;;;;;;;;;;;;;;;20.73;73.63;100378.91;6230612;28;20440;-75
2021/08/12 02:51:40;;;;;;;7.20;4.60;;;;;;;20.71;73.88;100374.72;6246297;28;20332;-75
2021/08/12 02:54:46;;;;;;;8.95;4.28;;;;;;;20.73;73.50;100376.25;6247397;28;20045;-75
2021/08/12 02:57:48;;;;;;;7.75;4.32;;;;;;;20.71;73.36;100375.59;6246337;28;20454;-76
2021/08/12 03:00:49;;;;;;;10.40;4.55;;;;;;;20.60;73.97;100374.97;6246304;28;20041;-76
2021/08/12 03:03:51;;;;;;;6.65;4.05;;;;;;;20.70;73.38;100381.03;6246251;28;20041;-75
2021/08/12 03:06:56;;;;;;;6.40;3.95;;;;;;;20.57;73.69;100393.78;6229654;28;20041;-76
2021/08/12 03:09:59;;;;;;;7.78;4.40;;;;;;;20.64;73.38;100393.06;6247118;28;20566;-76
2021/08/12 03:13:01;;;;;;;7.78;4.30;;;;;;;20.53;74.03;100394.09;6246415;28;20046;-75
2021/08/12 03:16:04;;;;;;;5.90;4.53;;;;;;;20.56;73.97;100400.06;6245857;28;20045;-75
2021/08/12 03:19:05;;;;;;;7.07;4.18;;;;;;;20.53;74.24;100399.38;6245623;28;20486;-75
2021/08/12 03:22:12;;;;;;;8.35;4.53;;;;;;;20.35;75.34;100406.47;6229278;28;20443;-75
2021/08/12 03:25:13;;;;;;;8.50;4.53;;;;;;;20.43;74.67;100403.91;6246799;28;20041;-75
2021/08/12 03:28:14;;;;;;;8.32;4.72;;;;;;;20.47;74.87;100404.47;6229244;28;20045;-75
2021/08/12 03:31:14;;;;;;;7.33;4.40;;;;;;;20.43;74.93;100405.75;6246654;28;20455;-75
2021/08/12 03:34:15;;;;;;;8.83;4.83;;;;;;;20.52;74.41;100407.47;6212666;28;20042;-76
2021/08/12 03:37:17;;;;;;;8.43;4.57;;;;;;;20.48;74.47;100403.47;6228905;28;20045;-75
2021/08/12 03:40:18;;;;;;;6.45;4.20;;;;;;;20.44;74.77;100408.22;6245263;28;20041;-75
2021/08/12 03:43:19;;;;;;;7.60;4.27;;;;;;;20.52;73.77;100415.44;6245226;28;20049;-75
2021/08/12 03:46:20;;;;;;;6.27;4.50;;;;;;;20.56;73.71;100419.44;6244869;28;20041;-75
2021/08/12 03:49:21;;;;;;;9.33;3.60;;;;;;;20.48;73.88;100419.38;6244400;28;20049;-76
2021/08/12 03:52:21;;;;;;;7.77;4.50;;;;;;;20.57;73.30;100426.44;6245151;28;20044;-75
2021/08/12 03:55:22;;;;;;;11.43;4.43;;;;;;;20.52;73.62;100432.16;6245049;28;20496;-76
2021/08/12 03:58:23;;;;;;;9.13;4.40;;;;;;;20.51;73.59;100438.47;6244929;28;20469;-76
2021/08/12 04:01:23;;;;;;;12.10;4.47;;;;;;;20.43;74.19;100437.53;6245980;28;20068;-75
2021/08/12 04:04:24;;;;;;;5.60;4.10;;;;;;;20.36;74.65;100441.75;6244956;28;20045;-76
2021/08/12 04:07:25;;;;;;;8.13;4.33;;;;;;;20.41;74.32;100442.16;6228179;28;20060;-75
2021/08/12 04:10:26;;;;;;;8.20;4.57;;;;;;;20.37;74.55;100444.25;6228338;28;20049;-76
2021/08/12 04:13:27;;;;;;;6.93;4.03;;;;;;;20.45;74.04;100446.19;6228896;28;20471;-75
2021/08/12 04:16:27;;;;;;;6.67;3.97;;;;;;;20.41;74.15;100450.94;6245124;28;20046;-76
2021/08/12 04:19:28;;;;;;;6.37;4.17;;;;;;;20.47;73.75;100449.50;6244934;28;20721;-75
2021/08/12 04:22:29;;;;;;;8.73;4.27;;;;;;;20.58;74.15;100454.63;6245686;28;20046;-76
2021/08/12 04:25:29;;;;;;;6.13;3.67;;;;;;;20.60;73.01;100447.38;6245736;28;20041;-76
2021/08/12 04:28:30;;;;;;;7.33;3.90;;;;;;;20.60;73.28;100457.13;6244465;28;20038;-75
2021/08/12 04:31:31;;;;;;;9.27;4.30;;;;;;;20.67;72.72;100447.59;6245822;28;20216;-75
2021/08/12 04:34:32;;;;;;;7.63;3.73;;;;;;;20.72;72.64;100453.28;6244523;28;20041;-75
2021/08/12 04:37:37;;;;;;;9.50;3.53;;;;;;;20.69;72.52;100450.94;6244463;28;20049;-76
2021/08/12 04:40:38;;;;;;;8.95;3.70;;;;;;;20.75;72.18;100457.47;6244133;28;20041;-75
2021/08/12 04:43:39;;;;;;;9.40;4.13;;;;;;;20.82;71.35;100455.88;6244267;28;20404;-75
2021/08/12 04:46:39;;;;;;;7.37;3.60;;;;;;;20.87;70.41;100465.03;6244266;28;20290;-75
2021/08/12 04:49:40;;;;;;;7.37;3.83;;;;;;;20.86;70.35;100457.25;6244199;28;20140;-76
2021/08/12 04:52:40;;;;;;;5.47;3.60;;;;;;;20.92;69.96;100449.53;6245452;28;20041;-76
2021/08/12 04:55:41;;;;;;;8.00;3.13;;;;;;;20.93;69.45;100463.63;6244123;28;20056;-75
2021/08/12 04:58:42;;;;;;;5.93;3.30;;;;;;;21.05;69.18;100459.75;6228905;28;20042;-76
2021/08/12 05:01:43;;;;;;;9.87;3.63;;;;;;;21.06;69.57;100464.06;6248849;28;20041;-75
2021/08/12 05:04:44;;;;;;;5.57;3.40;;;;;;;21.08;68.49;100461.25;6216292;28;20064;-76
2021/08/12 05:07:44;;;;;;;5.07;3.50;;;;;;;21.14;67.77;100473.91;6248601;28;20050;-75
2021/08/12 05:10:45;;;;;;;6.90;3.43;;;;;;;21.14;68.87;100474.75;6248641;28;20041;-76
2021/08/12 05:13:47;;;;;;;6.67;3.53;;;;;;;21.15;68.39;100480.91;6232341;28;20261;-76
2021/08/12 05:16:47;;;;;;;8.70;3.90;;;;;;;21.13;68.40;100486.34;6249675;28;20279;-75
2021/08/12 05:19:48;;;;;;;7.57;3.53;;;;;;;21.10;68.50;100483.16;6215800;28;20095;-75
2021/08/12 05:22:49;;;;;;;8.83;3.70;;;;;;;21.17;69.67;100489.56;6248375;28;20042;-75
2021/08/12 05:25:49;;;;;;;6.60;3.57;;;;;;;21.23;68.21;100488.09;6232026;28;20468;-75
2021/08/12 05:28:50;;;;;;;7.57;3.23;;;;;;;21.25;67.58;100489.63;6249514;28;20041;-76
2021/08/12 05:31:51;;;;;;;9.80;3.90;;;;;;;21.31;67.86;100486.34;6249419;28;20124;-76
2021/08/12 05:34:52;;;;;;;6.20;3.47;;;;;;;21.39;68.73;100490.88;6249455;28;20488;-76
2021/08/12 05:37:53;;;;;;;7.53;3.30;;;;;;;21.38;67.64;100489.22;6248024;28;20053;-75
2021/08/12 05:40:55;;;;;;;4.70;3.27;;;;;;;21.41;68.01;100499.53;6248010;28;20477;-75
2021/08/12 05:43:56;;;;;;;6.78;3.60;;;;;;;21.44;67.02;100509.06;6247914;28;20041;-75
2021/08/12 05:46:57;;;;;;;5.63;3.10;;;;;;;21.46;67.79;100505.25;6231494;28;20065;-76
2021/08/12 05:49:57;;;;;;;4.50;3.07;;;;;;;21.53;67.41;100514.25;6231400;28;20385;-76
2021/08/12 05:52:59;;;;;;;5.93;3.28;;;;;;;21.60;67.39;100516.31;6231410;28;20041;-76
2021/08/12 05:56:02;;;;;;;6.97;3.60;;;;;;;21.61;67.28;100515.31;6248948;28;20129;-76
2021/08/12 05:59:02;;;;;;;7.80;3.60;;;;;;;21.63;68.70;100514.19;6248992;28;20037;-75
2021/08/12 06:02:03;;;;;;;7.67;3.13;;;;;;;21.69;67.43;100515.38;6248744;28;20044;-75
2021/08/12 06:05:04;;;;;;;6.97;3.40;;;;;;;21.63;65.42;100514.19;6248655;28;20053;-76
2021/08/12 06:08:08;;;;;;;4.53;3.20;;;;;;;21.73;64.81;100522.88;6230964;28;20073;-76
2021/08/12 06:11:09;;;;;;;4.75;2.88;;;;;;;21.85;64.73;100528.78;6246394;28;20125;-76
2021/08/12 06:14:09;;;;;;;6.70;3.37;;;;;;;21.89;65.58;100526.66;6230941;28;20041;-76
2021/08/12 06:17:10;;;;;;;4.60;3.17;;;;;;;21.91;65.08;100532.66;6247126;28;20041;-76
2021/08/12 06:20:11;;;;;;;6.50;3.50;;;;;;;21.98;64.17;100524.88;6248774;28;20481;-76
2021/08/12 06:23:12;;;;;;;5.72;3.38;;;;;;;22.04;64.35;100530.41;6248369;28;20053;-76
2021/08/12 06:26:12;;;;;;;7.90;3.07;;;;;;;22.11;66.17;100527.94;6247094;28;20095;-75
2021/08/12 06:29:13;;;;;;;10.67;3.20;;;;;;;22.19;66.53;100535.13;6246897;28;20037;-75
2021/08/12 06:32:16;;;;;;;6.93;3.40;;;;;;;22.27;66.28;100533.38;6246912;28;20203;-76
2021/08/12 06:35:17;;;;;;;7.75;2.83;;;;;;;22.30;68.29;100534.91;6230386;28;20046;-75
2021/08/12 06:38:18;;;;;;;4.53;3.13;;;;;;;22.32;64.97;100531.09;6247937;28;20038;-75
2021/08/12 06:41:19;;;;;;;4.20;2.50;;;;;;;22.38;65.19;100545.56;6246695;28;20049;-75
2021/08/12 06:44:20;;;;;;;3.83;2.87;;;;;;;22.41;64.27;100544.44;6246838;28;20042;-76
2021/08/12 06:47:20;;;;;;;4.77;3.00;;;;;;;22.46;64.32;100542.13;6230080;28;20045;-74
2021/08/12 06:50:22;;;;;;;9.13;3.27;;;;;;;22.50;63.75;100546.13;6247664;28;20099;-74
2021/08/12 06:53:22;;;;;;;6.32;2.88;;;;;;;22.56;63.42;100545.50;6247562;28;20057;-74
2021/08/12 06:56:23;;;;;;;4.77;2.73;;;;;;;22.59;62.96;100549.66;6213584;28;20053;-74
2021/08/12 06:59:24;;;;;;;10.43;3.10;;;;;;;22.64;64.34;100548.19;6213473;28;20393;-74
2021/08/12 07:02:25;;;;;;;4.80;2.67;;;;;;;22.70;63.23;100555.53;6247326;28;20042;-74
2021/08/12 07:05:26;;;;;;;5.95;2.88;;;;;;;22.75;60.99;100549.72;6247224;28;20041;-74
2021/08/12 07:08:26;;;;;;;5.83;2.50;;;;;;;22.79;59.91;100559.03;6247027;28;20049;-74
2021/08/12 07:11:27;;;;;;;3.70;2.67;;;;;;;22.84;59.88;100548.75;6245929;28;20492;-74
2021/08/12 07:14:28;;;;;;;5.37;2.47;;;;;;;22.89;59.52;100558.91;6197007;28;20045;-75
2021/08/12 07:17:28;;;;;;;3.33;2.43;;;;;;;22.95;59.87;100560.94;6246879;28;20076;-75
2021/08/12 07:20:29;;;;;;;7.40;2.57;;;;;;;22.96;59.19;100557.28;6229601;28;20132;-75
2021/08/12 07:23:32;;;;;;;7.60;2.70;;;;;;;23.03;59.34;100566.31;6245334;28;20502;-75
2021/08/12 07:26:33;;;;;;;5.50;2.22;;;;;;;23.12;58.50;100561.81;6213339;28;20404;-75
2021/08/12 07:29:33;;;;;;;5.65;2.20;;;;;;;23.17;56.20;100580.81;6246484;28;20091;-75
2021/08/12 07:32:34;;;;;;;6.50;2.50;;;;;;;23.21;56.37;100570.69;6246218;28;20049;-74
2021/08/12 07:35:35;;;;;;;4.27;2.50;;;;;;;23.25;56.88;100586.16;6229623;28;20059;-75
2021/08/12 07:38:37;;;;;;;7.80;2.10;;;;;;;23.29;55.23;100571.53;6245406;28;20046;-74
2021/08/12 07:41:38;;;;;;;5.72;2.45;;;;;;;23.33;54.70;100578.19;6246479;28;20045;-74
2021/08/12 07:44:38;;;;;;;3.60;2.07;;;;;;;23.34;53.23;100571.84;6245193;28;20492;-74
2021/08/12 07:47:39;;;;;;;5.10;2.10;;;;;;;23.40;55.33;100583.69;6245134;28;20124;-74
2021/08/12 07:50:41;;;;;;;9.40;2.30;;;;;;;23.41;53.97;100579.19;6228623;28;20550;-74
2021/08/12 07:53:42;;;;;;;3.83;2.20;;;;;;;23.45;55.52;100575.19;6245006;28;20052;-74
2021/08/12 07:56:43;;;;;;;4.32;2.30;;;;;;;23.50;55.14;100594.19;6246114;28;20041;-75
2021/08/12 07:59:43;;;;;;;4.03;2.20;;;;;;;23.54;53.75;100585.69;6244719;28;20072;-74
2021/08/12 08:02:46;;;;;;;5.77;2.30;;;;;;;23.60;53.29;100589.53;6244743;28;20419;-74
2021/08/12 08:05:47;;;;;;;5.38;2.40;;;;;;;23.65;53.15;100597.84;6244499;28;20403;-74
2021/08/12 08:08:47;;;;;;;3.50;2.33;;;;;;;23.68;53.58;100586.88;6244386;28;20049;-74
2021/08/12 08:11:48;;;;;;;4.23;2.10;;;;;;;23.72;53.81;100598.00;6244625;28;20498;-74
2021/08/12 08:14:49;;;;;;;3.90;2.30;;;;;;;23.74;51.10;100591.53;6244587;28;20041;-74
2021/08/12 08:17:50;;;;;;;6.13;2.30;;;;;;;23.77;52.74;100594.91;6244637;28;20446;-75
2021/08/12 08:20:50;;;;;;;6.27;2.40;;;;;;;23.82;50.67;100596.06;6244633;28;20049;-74
2021/08/12 08:23:51;;;;;;;3.97;2.17;;;;;;;23.86;49.55;100594.72;6245740;28;20124;-74
2021/08/12 08:26:53;;;;;;;3.43;2.00;;;;;;;23.90;48.60;100598.72;6244372;28;20046;-75
2021/08/12 08:29:53;;;;;;;4.85;1.95;;;;;;;23.93;51.63;100600.22;6245539;28;20403;-74
2021/08/12 08:32:54;;;;;;;2.20;1.70;;;;;;;23.96;51.49;100597.22;6245151;28;20045;-75
2021/08/12 08:35:55;;;;;;;2.47;2.08;;;;;;;24.01;48.34;100602.91;6252441;28;20046;-75
2021/08/12 08:38:56;;;;;;;2.97;2.10;;;;;;;24.02;48.38;100601.88;6253641;28;20052;-74
2021/08/12 08:41:57;;;;;;;2.90;2.13;;;;;;;24.05;48.59;100596.22;6219801;28;20065;-74
2021/08/12 08:44:58;;;;;;;3.03;1.90;;;;;;;24.10;49.27;100598.38;6235933;28;20341;-75
2021/08/12 08:48:02;;;;;;;6.00;1.83;;;;;;;24.14;47.24;100597.03;6252735;28;20045;-75
2021/08/12 08:51:05;;;;;;;4.30;2.10;;;;;;;24.17;48.50;100603.88;6253990;28;20041;-75
2021/08/12 08:54:09;;;;;;;3.38;2.20;;;;;;;24.19;48.70;100601.84;6254166;28;20495;-75
2021/08/12 08:57:10;;;;;;;3.85;2.40;;;;;;;24.22;49.86;100594.38;6252365;28;20381;-74
2021/08/12 09:00:11;;;;;;;2.90;1.98;;;;;;;24.26;50.61;100594.88;6252219;28;20048;-74
2021/08/12 09:03:12;;;;;;;3.97;2.10;;;;;;;24.28;49.58;100596.34;6235741;28;20044;-74
2021/08/12 09:06:13;;;;;;;5.27;2.30;;;;;;;24.32;48.52;100599.53;6229554;28;20042;-75
2021/08/12 09:09:14;;;;;;;2.95;1.90;;;;;;;24.35;47.57;100596.50;6219360;28;20325;-74
2021/08/12 09:12:15;;;;;;;4.70;2.00;;;;;;;24.38;46.88;100601.50;6211195;28;20065;-75
2021/08/12 09:15:20;;;;;;;5.73;2.30;;;;;;;24.37;49.21;100599.81;6227662;28;20053;-77
2021/08/12 09:18:22;;;;;;;3.80;2.38;;;;;;;24.42;48.31;100601.97;6227717;28;20069;-76
2021/08/12 09:21:23;;;;;;;5.68;2.20;;;;;;;24.46;48.68;100608.63;6234389;28;20041;-77
2021/08/12 09:24:24;;;;;;;5.13;2.50;;;;;;;24.50;50.44;100612.66;6218626;28;20038;-77
2021/08/12 09:27:25;;;;;;;2.78;2.13;;;;;;;24.54;48.98;100603.31;6227808;28;20049;-77
2021/08/12 09:30:26;;;;;;;6.03;2.63;;;;;;;24.56;50.54;100608.47;6229863;28;20474;-77
2021/08/12 09:33:34;;;;;;;3.50;2.25;;;;;;;24.59;50.26;100608.16;6230779;28;20049;-77
2021/08/12 09:36:38;;;;;;;3.55;2.10;;;;;;;24.59;49.11;100605.47;6245784;28;20103;-77
2021/08/12 09:39:43;;;;;;;7.78;2.42;;;;;;;24.65;49.48;100610.13;6247267;28;20041;-78
2021/08/12 09:42:56;;;;;;;3.88;2.30;;;;;;;24.67;47.54;100608.94;6248440;28;20125;-77
2021/08/12 09:45:57;;;;;;;4.13;2.28;;;;;;;24.70;49.45;100608.59;6242707;28;20045;-78
2021/08/12 09:48:58;;;;;;;2.92;1.83;;;;;;;24.77;48.65;100611.41;6244186;28;20048;-76
2021/08/12 09:51:59;;;;;;;3.30;2.33;;;;;;;24.81;47.87;100611.88;6242630;28;20443;-77
2021/08/12 09:55:09;;;;;;;3.83;2.00;;;;;;;24.89;45.97;100617.19;6242526;28;20098;-77
2021/08/12 09:58:12;;;;;;;3.30;2.10;;;;;;;24.82;45.63;100619.72;6242335;28;20042;-77
2021/08/12 10:01:20;;;;;;;5.40;2.65;;;;;;;24.84;45.92;100617.72;6243981;28;20042;-77
2021/08/12 10:04:28;;;;;;;3.95;2.40;;;;;;;24.87;45.62;100619.19;6243244;28;20145;-77
2021/08/12 10:07:51;;;;;;;3.17;1.92;;;;;;;25.01;47.52;100615.78;6230161;28;20050;-77
2021/08/12 10:10:52;;;;;;;4.10;2.50;;;;;;;25.02;46.85;100611.28;6246600;28;20056;-77
2021/08/12 10:14:04;;;;;;;3.60;1.95;;;;;;;25.05;49.26;100613.63;6248562;28;20038;-77
2021/08/12 10:17:05;;;;;;;8.65;2.70;;;;;;;25.10;48.50;100621.91;6248773;28;20046;-77
2021/08/12 10:20:12;;;;;;;3.25;1.92;;;;;;;25.14;47.86;100617.91;6226825;28;20056;-77
2021/08/12 10:23:14;;;;;;;4.60;2.60;;;;;;;25.18;46.78;100621.06;6214210;28;20408;-78
2021/08/12 10:26:17;;;;;;;4.68;2.10;;;;;;;25.13;46.68;100624.25;6233389;28;20409;-78
2021/08/12 10:29:23;;;;;;;3.92;2.47;;;;;;;25.04;45.58;100622.63;6226825;28;20045;-78
2021/08/12 10:32:25;;;;;;;11.68;2.40;;;;;;;25.21;46.16;100626.09;6223584;28;20049;-78
2021/08/12 10:35:31;;;;;;;10.70;2.90;;;;;;;25.27;45.59;100625.41;6223429;28;20050;-78
2021/08/12 10:38:34;;;;;;;10.32;2.40;;;;;;;25.37;45.45;100623.31;6223507;28;20052;-78
2021/08/12 10:41:35;;;;;;;5.07;2.40;;;;;;;25.33;46.98;100622.84;6205854;28;20548;-78
2021/08/12 10:44:37;;;;;;;5.07;2.35;;;;;;;25.32;45.86;100621.16;6222040;28;20099;-78
2021/08/12 10:47:49;;;;;;;8.13;2.60;;;;;;;25.36;46.02;100618.16;6205760;28;20107;-79
2021/08/12 10:51:12;;;;;;;8.73;2.63;;;;;;;25.33;44.70;100614.81;6221999;28;20124;-78
2021/08/12 10:54:18;;;;;;;5.43;2.65;;;;;;;25.42;43.96;100615.59;6221884;28;20046;-78
2021/08/12 10:57:23;;;;;;;3.38;2.20;;;;;;;25.47;44.12;100621.25;6221753;28;20049;-77
2021/08/12 11:00:50;;;;;;;3.40;2.50;;;;;;;25.52;43.26;100613.53;6222693;28;20096;-77
2021/08/12 11:03:53;;;;;;;4.38;2.20;;;;;;;25.59;47.76;100610.97;6222899;28;20077;-78
2021/08/12 11:06:54;;;;;;;7.18;2.20;;;;;;;25.67;45.36;100612.75;6221532;28;20448;-78
2021/08/12 11:09:56;;;;;;;4.57;2.70;;;;;;;25.78;44.18;100616.84;6205151;28;20111;-77
2021/08/12 11:12:57;;;;;;;4.88;2.40;;;;;;;25.90;45.47;100628.81;6221468;28;20392;-78
2021/08/12 11:15:58;;;;;;;4.00;2.42;;;;;;;26.02;41.88;100616.66;6221305;28;20041;-77
2021/08/12 11:18:59;;;;;;;5.23;2.60;;;;;;;25.99;46.32;100619.72;6204877;28;20049;-77
2021/08/12 11:22:00;;;;;;;7.65;2.58;;;;;;;26.05;46.28;100610.97;6223200;28;20322;-76
2021/08/12 11:25:03;;;;;;;5.65;2.40;;;;;;;26.08;42.52;100610.59;6188609;28;20544;-78
2021/08/12 11:28:04;;;;;;;5.90;2.08;;;;;;;26.16;42.49;100623.06;6222295;28;20042;-77
2021/08/12 11:31:09;;;;;;;14.35;2.78;;;;;;;26.20;43.33;100627.03;6221146;28;20104;-78
2021/08/12 11:34:17;;;;;;;17.88;3.08;;;;;;;26.24;43.81;100617.63;6237368;28;20040;-78
2021/08/12 11:37:29;;;;;;;11.82;2.55;;;;;;;26.27;43.65;100613.75;6247115;28;20049;-78
2021/08/12 11:40:32;;;;;;;17.92;3.22;;;;;;;27.07;40.47;100622.91;6245316;28;20050;-78
2021/08/12 11:43:34;;;;;;;11.02;2.75;;;;;;;29.33;34.57;100616.56;6228951;28;20045;-78
2021/08/12 11:46:37;;;;;;;2.90;2.42;;;;;;;31.81;30.64;100639.19;6245144;28;20041;-78
2021/08/12 11:49:45;;;;;;;4.10;2.38;;;;;;;33.75;27.69;100635.16;6245182;28;20049;-78
2021/08/12 11:52:49;;;;;;;;;;;;;;;34.34;25.36;100629.75;6214910;28;20496;-78
2021/08/12 11:55:50;;;;;;;;;;;;;;;34.37;25.52;100626.59;6246672;28;19925;-78
2021/08/12 11:58:54;;;;;;;7.18;2.67;;;;;;;34.21;26.31;100627.31;6245193;28;19978;-79
2021/08/12 12:01:56;;;;;;;4.68;2.50;;;;;;;33.91;27.51;100628.22;6245584;28;20045;-78
2021/08/12 12:04:57;;;;;;;5.75;2.50;;;;;;;33.57;27.71;100622.50;6247281;28;20048;-77
2021/08/12 12:08:09;;;;;;;3.33;2.40;;;;;;;33.40;28.64;100627.75;6214005;28;20057;-76
2021/08/12 12:11:12;;;;;;;3.97;2.38;;;;;;;33.28;29.71;100616.91;6245671;28;20128;-77
2021/08/12 12:14:18;;;;;;;5.65;2.50;;;;;;;31.75;30.67;100618.50;6246432;28;20048;-75
2021/08/12 12:17:21;;;;;;;4.40;2.33;;;;;;;31.08;31.51;100623.47;6244371;28;20041;-76
2021/08/12 12:20:24;;;;;;;3.50;2.28;;;;;;;31.67;31.03;100605.28;6244677;28;20079;-76
2021/08/12 12:23:25;;;;;;;2.85;2.15;;;;;;;31.65;31.09;100610.91;6228416;28;20045;-76
2021/08/12 12:26:29;;;;;;;2.88;2.15;;;;;;;31.76;28.13;100605.84;6244371;28;20506;-76
2021/08/12 12:29:29;;;;;;;7.32;2.60;;;;;;;31.83;31.03;100607.44;6244449;28;20033;-75
2021/08/12 12:32:30;;;;;;;4.85;2.05;;;;;;;31.97;30.08;100599.22;6244361;28;20042;-76
2021/08/12 12:35:44;;;;;;;4.93;2.45;;;;;;;31.72;29.22;100602.75;6244443;28;20412;-75
2021/08/12 12:38:45;;;;;;;6.15;2.50;;;;;;;31.58;31.07;100603.91;6246084;28;20037;-75
2021/08/12 12:41:46;;;;;;;3.60;2.20;;;;;;;31.38;31.83;100602.16;6244227;28;20041;-78
2021/08/12 12:45:09;;;;;;;2.92;2.40;;;;;;;31.19;30.48;100609.31;6244242;28;20033;-78
2021/08/12 12:48:10;;;;;;;3.58;2.20;;;;;;;31.04;30.91;100608.78;6244293;28;20041;-77
2021/08/12 12:51:10;;;;;;;3.22;2.33;;;;;;;30.63;33.02;100604.56;6245207;28;20041;-75
2021/08/12 12:54:11;;;;;;;2.65;2.08;;;;;;;30.08;33.34;100610.22;6244177;28;20033;-75
2021/08/12 12:57:12;;;;;;;;;;;;;;;29.92;33.51;100603.44;6244477;28;20132;-76
2021/08/12 13:00:24;;;;;;;2.95;2.30;;;;;;;30.03;33.65;100593.91;6244222;28;19925;-76
2021/08/12 13:03:46;;;;;;;5.13;2.35;;;;;;;29.62;33.31;100594.91;6245164;28;20045;-77
2021/08/12 13:06:46;;;;;;;3.83;2.30;;;;;;;29.51;34.25;100594.50;6247407;28;20052;-76
2021/08/12 13:09:47;;;;;;;;;;;;;;;29.43;33.01;100592.00;6219153;28;20053;-76
2021/08/12 13:12:59;;;;;;;7.50;2.67;;;;;;;29.56;35.53;100580.41;6240809;28;19929;-76
2021/08/12 13:16:00;;;;;;;4.32;2.33;;;;;;;29.51;34.77;100574.84;6236761;28;20064;-76
2021/08/12 13:19:01;;;;;;;5.45;2.42;;;;;;;29.55;35.98;100570.72;6228778;28;20045;-75
2021/08/12 13:22:18;;;;;;;3.95;2.22;;;;;;;29.40;33.75;100578.13;6214978;28;20112;-75
2021/08/12 13:25:22;;;;;;;5.55;2.40;;;;;;;29.33;34.38;100573.56;6244358;28;20057;-76
2021/08/12 13:28:34;;;;;;;7.57;2.50;;;;;;;29.38;35.61;100570.25;6243199;28;20042;-76
2021/08/12 13:31:37;;;;;;;4.95;2.50;;;;;;;29.29;36.24;100574.19;6245250;28;20064;-76
2021/08/12 13:34:44;;;;;;;3.47;2.47;;;;;;;29.29;35.33;100582.25;6242775;28;20049;-76
2021/08/12 13:37:45;;;;;;;4.50;2.22;;;;;;;29.26;35.40;100580.81;6241143;28;20120;-76
2021/08/12 13:40:46;;;;;;;5.07;2.40;;;;;;;29.25;34.46;100575.63;6227807;28;20063;-76
2021/08/12 13:43:47;;;;;;;4.05;2.35;;;;;;;29.15;34.24;100578.69;6244587;28;20041;-76
2021/08/12 13:46:48;;;;;;;5.03;2.42;;;;;;;29.10;34.72;100578.47;6236887;28;20042;-76
2021/08/12 13:49:49;;;;;;;4.70;2.38;;;;;;;28.89;36.29;100582.09;6246820;28;20044;-77
2021/08/12 13:52:50;;;;;;;3.47;2.58;;;;;;;28.90;36.21;100568.47;6248818;28;20038;-76
2021/08/12 13:55:51;;;;;;;3.25;2.10;;;;;;;28.94;36.87;100567.03;6248092;28;20103;-77
2021/08/12 13:58:52;;;;;;;3.15;2.15;;;;;;;28.88;36.40;100567.84;6246726;28;20111;-76
2021/08/12 14:01:54;;;;;;;5.95;2.42;;;;;;;28.93;37.00;100567.22;6248679;28;20481;-75
2021/08/12 14:04:55;;;;;;;4.47;2.80;;;;;;;28.87;36.64;100574.25;6247744;28;20102;-76
2021/08/12 14:07:56;;;;;;;3.58;2.38;;;;;;;28.78;34.96;100564.72;6232889;28;20054;-76
2021/08/12 14:10:57;;;;;;;4.28;2.53;;;;;;;28.76;35.24;100566.75;6229840;28;20049;-76